Lakeside, MT (59922)

11:50 AM MDT on May 22, 2015 (GMT -0600)
Lakeside | | Change Station
CLOSE
Current Station
Personal Weather Station
Location: Lakeside, MT
Elevation: 2930 ft
Nearby Weather Stations

Elev 2930 ft 48.02 °N, 114.23 °W | Updated 11 minutes ago

Clear
Clear
72.1 °F
Feels Like 77 °F
N
0.0
Wind Variable Wind from NE

Today
High -- | Low -- °F
--% Chance of Precip.
Yesterday
High -- | Low -- °F
Precip. -- in
5:50 AM 9:17 PM
Waxing Crescent, 23% visible
Pressure 29.91 in
Visibility 10.0 miles
Clouds Clear
Heat Index 77 °F
Dew Point 43 °F
Humidity 35%
Rainfall 0.00 in
Snow Depth Not available.
UV 7 out of 12
Pollen 9.00 out of 12
Air Quality Not available.
Flu Activity Local Activity
METAR KMSO 221653Z 00000KT 10SM CLR 16/07 A2993 RMK AO2 SLP126 T01610067

More Conditions Fewer Conditions

Pressure 29.91 in
Visibility 10.0 miles
Clouds Clear
Heat Index 77 °F
Dew Point 43 °F
Humidity 35%
Rainfall 0.00 in
Snow Depth Not available.
UV 7 out of 12
Pollen 9.00 out of 12
Air Quality Not available.
Flu Activity Local Activity
METAR KMSO 221653Z 00000KT 10SM CLR 16/07 A2993 RMK AO2 SLP126 T01610067

More Conditions Fewer Conditions

10-Day Weather Forecast

Almanac

Astronomy

May. 22, 2015 Rise Set
Actual Time
Civil Twilight
Nautical Twilight
Astronomical Twilight
Moon
Length of Visible Light
Length of Day
Tomorrow will be .
, % of the Moon is Illuminated

Today's Extremes

State Highs State Lows

Community

WunderPhotos

Upload Photos

1,823,269 photos uploaded!

WunderBlogs® & News

Nearby

Air Quality

  Air Quality AQ Index Pollutant
Not available.

Snow Depth

Station Depth Elevation

Earthquake Activity

City Distance Mag. Time & Date
Minimum magnitude displayed is 2.5.

Coastal Water Temperatures

Place Temperature

Stations

Nearby Weather Stations

Station Location Temp. Windchill Dew Point Humidity Wind Precip. Elev Updated Type